Time;durP1;ratioP1;P1;durP2;ratioP2;P2;SDS_P1;SDS_P2;PMS_P1;PMS_P2;Temp;Humidity;BMP_temperature;BMP_pressure;BME280_temperature;BME280_humidity;BME280_pressure;Samples;Min_cycle;Max_cycle;Signal;HPM_P1;HPM_P2
2021/04/03 00:00:50;;;;;;;13.88;4.53;;;;;;;;;;5058539;28;20227;-51
2021/04/03 00:03:19;;;;;;;9.88;4.18;;;;;;;;;;5058759;28;20186;-53
2021/04/03 00:05:45;;;;;;;12.85;3.67;;;;;;;;;;5057889;28;20170;-52
2021/04/03 00:08:12;;;;;;;9.75;4.38;;;;;;;;;;5057042;28;20170;-52
2021/04/03 00:10:45;;;;;;;11.85;4.10;;;;;;;;;;5057968;28;20701;-52
2021/04/03 00:13:11;;;;;;;16.10;4.25;;;;;;;;;;5057877;28;20194;-52
2021/04/03 00:15:37;;;;;;;9.07;4.55;;;;;;;;;;5059602;28;20198;-53
2021/04/03 00:18:03;;;;;;;16.17;4.20;;;;;;;;;;5057720;28;20228;-52
2021/04/03 00:20:31;;;;;;;9.47;3.87;;;;;;;;;;5058266;28;20167;-52
2021/04/03 00:22:57;;;;;;;19.80;3.92;;;;;;;;;;5056808;28;20976;-53
2021/04/03 00:25:26;;;;;;;13.20;5.38;;;;;;;;;;5058259;28;20193;-52
2021/04/03 00:27:52;;;;;;;15.82;4.60;;;;;;;;;;5057516;28;20181;-51
2021/04/03 00:30:18;;;;;;;14.93;4.50;;;;;;;;;;5054721;28;20186;-51
2021/04/03 00:32:51;;;;;;;10.88;4.63;;;;;;;;;;5054485;28;20485;-53
2021/04/03 00:35:20;;;;;;;16.05;6.45;;;;;;;;;;5056760;28;20169;-52
2021/04/03 00:37:46;;;;;;;13.05;4.40;;;;;;;;;;5056003;28;20182;-52
2021/04/03 00:40:18;;;;;;;16.65;5.78;;;;;;;;;;5064919;28;20195;-52
2021/04/03 00:42:44;;;;;;;13.27;4.95;;;;;;;;;;5073898;28;20190;-52
2021/04/03 00:45:11;;;;;;;15.10;4.85;;;;;;;;;;5074655;28;20157;-52
2021/04/03 00:47:36;;;;;;;20.83;6.38;;;;;;;;;;5074528;28;20166;-51
2021/04/03 00:50:03;;;;;;;22.00;5.83;;;;;;;;;;5075210;28;20248;-52
2021/04/03 00:52:30;;;;;;;12.45;4.82;;;;;;;;;;5074588;28;20467;-52
2021/04/03 00:54:55;;;;;;;16.55;6.35;;;;;;;;;;5074942;28;20223;-53
2021/04/03 00:57:22;;;;;;;19.07;6.00;;;;;;;;;;5073857;28;20214;-52
2021/04/03 00:59:49;;;;;;;14.43;5.70;;;;;;;;;;5058409;28;20433;-52
2021/04/03 01:02:15;;;;;;;18.92;4.32;;;;;;;;;;5051498;28;20853;-52
2021/04/03 01:04:41;;;;;;;5.45;3.40;;;;;;;;;;5052764;28;20162;-50
2021/04/03 01:07:07;;;;;;;6.18;3.50;;;;;;;;;;5050378;28;20173;-50
2021/04/03 01:09:37;;;;;;;7.47;3.70;;;;;;;;;;5050124;28;20288;-50
2021/04/03 01:12:06;;;;;;;5.75;3.30;;;;;;;;;;5050206;28;20453;-53
2021/04/03 01:14:37;;;;;;;9.15;2.63;;;;;;;;;;5053377;28;20163;-50
2021/04/03 01:17:03;;;;;;;6.22;3.45;;;;;;;;;;5054219;28;20529;-49
2021/04/03 01:19:48;;;;;;;9.15;3.55;;;;;;;;;;5053785;28;20172;-50
2021/04/03 01:22:34;;;;;;;3.80;2.50;;;;;;;;;;5054034;28;20193;-53
2021/04/03 01:25:03;;;;;;;10.27;3.33;;;;;;;;;;5054142;28;20178;-50
2021/04/03 01:27:30;;;;;;;6.60;3.47;;;;;;;;;;5053784;28;20597;-50
2021/04/03 01:30:04;;;;;;;13.63;3.40;;;;;;;;;;5054687;28;20222;-51
2021/04/03 01:32:38;;;;;;;8.55;3.63;;;;;;;;;;5053747;28;20214;-53
2021/04/03 01:35:08;;;;;;;22.52;3.80;;;;;;;;;;5053649;28;20201;-50
2021/04/03 01:37:39;;;;;;;6.07;3.25;;;;;;;;;;5060542;28;20170;-50
2021/04/03 01:40:05;;;;;;;7.60;3.05;;;;;;;;;;5073596;28;20638;-53
2021/04/03 01:42:34;;;;;;;12.52;4.13;;;;;;;;;;5073548;28;20185;-50
2021/04/03 01:45:02;;;;;;;9.13;3.35;;;;;;;;;;5073562;28;20283;-52
2021/04/03 01:47:30;;;;;;;12.32;3.20;;;;;;;;;;5073337;28;20652;-50
2021/04/03 01:49:56;;;;;;;12.98;3.45;;;;;;;;;;5072074;28;20182;-50
2021/04/03 01:52:24;;;;;;;18.38;3.85;;;;;;;;;;5073363;28;20201;-52
2021/04/03 01:54:51;;;;;;;9.35;3.00;;;;;;;;;;5073453;28;20641;-51
2021/04/03 01:57:19;;;;;;;10.80;3.67;;;;;;;;;;5073175;28;20183;-57
2021/04/03 01:59:46;;;;;;;10.95;3.60;;;;;;;;;;5065837;28;20178;-50
2021/04/03 02:02:16;;;;;;;17.15;4.13;;;;;;;;;;5053076;28;20211;-53
2021/04/03 02:04:42;;;;;;;25.40;4.00;;;;;;;;;;5053246;28;20249;-52
2021/04/03 02:07:11;;;;;;;17.02;3.85;;;;;;;;;;5053135;28;20170;-50
2021/04/03 02:09:37;;;;;;;14.95;3.20;;;;;;;;;;5052902;28;20186;-53
2021/04/03 02:12:03;;;;;;;17.33;3.70;;;;;;;;;;5052847;28;20289;-52
2021/04/03 02:14:30;;;;;;;14.93;4.15;;;;;;;;;;5053057;28;20252;-50
2021/04/03 02:16:56;;;;;;;11.40;4.10;;;;;;;;;;5052954;28;20177;-50
2021/04/03 02:19:22;;;;;;;13.85;3.85;;;;;;;;;;5052824;28;20159;-50
2021/04/03 02:21:49;;;;;;;14.50;4.32;;;;;;;;;;5052851;28;20265;-49
2021/04/03 02:24:15;;;;;;;22.38;3.67;;;;;;;;;;5052654;28;20171;-51
2021/04/03 02:26:41;;;;;;;16.85;3.67;;;;;;;;;;5052742;28;20186;-53
2021/04/03 02:29:07;;;;;;;13.68;3.95;;;;;;;;;;5060807;28;20189;-53
2021/04/03 02:31:34;;;;;;;10.65;3.83;;;;;;;;;;5072611;28;20205;-51
2021/04/03 02:34:00;;;;;;;15.27;3.95;;;;;;;;;;5072718;28;20198;-50
2021/04/03 02:36:26;;;;;;;22.77;3.70;;;;;;;;;;5072732;28;20170;-49
2021/04/03 02:38:53;;;;;;;17.65;3.63;;;;;;;;;;5072468;28;20195;-50
2021/04/03 02:41:21;;;;;;;23.23;4.20;;;;;;;;;;5072795;28;20319;-50
2021/04/03 02:43:50;;;;;;;15.02;3.75;;;;;;;;;;5072751;28;20170;-50
2021/04/03 02:46:18;;;;;;;8.02;3.63;;;;;;;;;;5072796;28;20961;-50
2021/04/03 02:48:50;;;;;;;12.45;3.60;;;;;;;;;;5072407;28;20274;-50
2021/04/03 02:51:21;;;;;;;11.38;4.25;;;;;;;;;;5072436;28;20563;-54
2021/04/03 02:53:47;;;;;;;8.77;3.17;;;;;;;;;;5072440;28;20196;-50
2021/04/03 02:56:14;;;;;;;12.32;3.90;;;;;;;;;;5072295;28;20738;-50
2021/04/03 02:58:40;;;;;;;11.40;3.30;;;;;;;;;;5070441;28;21745;-52
2021/04/03 03:01:09;;;;;;;16.70;3.63;;;;;;;;;;5052442;28;20171;-50
2021/04/03 03:03:35;;;;;;;12.60;3.85;;;;;;;;;;5052185;28;20252;-50
2021/04/03 03:06:02;;;;;;;11.65;3.63;;;;;;;;;;5052278;28;20179;-50
2021/04/03 03:08:29;;;;;;;22.92;3.63;;;;;;;;;;5051870;28;20167;-52
2021/04/03 03:10:55;;;;;;;11.93;3.60;;;;;;;;;;5051854;28;20219;-50
2021/04/03 03:13:21;;;;;;;15.35;3.90;;;;;;;;;;5052015;28;20266;-50
2021/04/03 03:15:48;;;;;;;19.77;3.22;;;;;;;;;;5051866;28;20193;-50
2021/04/03 03:18:17;;;;;;;17.02;3.78;;;;;;;;;;5051670;28;20163;-50
2021/04/03 03:20:44;;;;;;;17.45;3.80;;;;;;;;;;5051765;28;20221;-51
2021/04/03 03:23:11;;;;;;;10.93;3.22;;;;;;;;;;5051749;28;20195;-50
2021/04/03 03:25:39;;;;;;;15.13;3.13;;;;;;;;;;5051600;28;20179;-50
2021/04/03 03:28:05;;;;;;;15.60;3.20;;;;;;;;;;5053271;28;21892;-51
2021/04/03 03:30:31;;;;;;;12.75;3.55;;;;;;;;;;5071302;28;20593;-51
2021/04/03 03:32:57;;;;;;;12.32;3.70;;;;;;;;;;5071475;28;20193;-51
2021/04/03 03:35:23;;;;;;;7.78;3.40;;;;;;;;;;5070975;28;20192;-51
2021/04/03 03:37:50;;;;;;;8.00;4.00;;;;;;;;;;5071084;28;20645;-52
2021/04/03 03:40:17;;;;;;;9.48;3.55;;;;;;;;;;5071230;28;20926;-50
2021/04/03 03:42:48;;;;;;;24.23;5.15;;;;;;;;;;5071223;28;20696;-51
2021/04/03 03:45:14;;;;;;;11.18;3.08;;;;;;;;;;5070683;28;20165;-52
2021/04/03 03:47:40;;;;;;;12.65;3.10;;;;;;;;;;5070975;28;20162;-51
2021/04/03 03:50:07;;;;;;;16.17;3.20;;;;;;;;;;5071223;28;20174;-52
2021/04/03 03:52:33;;;;;;;16.95;4.40;;;;;;;;;;5070953;28;20968;-52
2021/04/03 03:54:59;;;;;;;13.50;3.97;;;;;;;;;;5071052;28;20699;-52
2021/04/03 03:57:25;;;;;;;11.10;3.37;;;;;;;;;;5070935;28;20170;-52
2021/04/03 03:59:51;;;;;;;12.50;3.23;;;;;;;;;;5056154;28;20421;-50
2021/04/03 04:02:17;;;;;;;11.13;3.72;;;;;;;;;;5051066;28;20458;-51
2021/04/03 04:04:43;;;;;;;14.25;3.60;;;;;;;;;;5051108;28;20165;-50
2021/04/03 04:07:09;;;;;;;15.30;3.60;;;;;;;;;;5050536;28;20757;-50
2021/04/03 04:09:36;;;;;;;10.50;2.97;;;;;;;;;;5050647;28;20515;-52
2021/04/03 04:12:05;;;;;;;17.70;4.28;;;;;;;;;;5050648;28;20979;-52
2021/04/03 04:14:32;;;;;;;16.80;3.67;;;;;;;;;;5052353;28;20539;-52
2021/04/03 04:16:58;;;;;;;11.27;3.38;;;;;;;;;;5050887;28;20172;-50
2021/04/03 04:19:24;;;;;;;10.77;2.88;;;;;;;;;;5050623;28;20232;-50
2021/04/03 04:21:50;;;;;;;14.60;3.83;;;;;;;;;;5050818;28;20194;-50
2021/04/03 04:24:16;;;;;;;13.50;3.60;;;;;;;;;;5050647;28;20417;-50
2021/04/03 04:26:42;;;;;;;17.73;2.83;;;;;;;;;;5050946;28;20397;-52
2021/04/03 04:29:08;;;;;;;14.90;3.77;;;;;;;;;;5050576;28;20803;-53
2021/04/03 04:31:34;;;;;;;19.43;4.67;;;;;;;;;;5050645;28;20838;-54
2021/04/03 04:34:00;;;;;;;22.90;4.50;;;;;;;;;;5050899;28;20867;-53
2021/04/03 04:36:26;;;;;;;9.70;2.90;;;;;;;;;;5053358;28;20209;-51
2021/04/03 04:38:52;;;;;;;13.97;3.00;;;;;;;;;;5050316;28;20659;-50
2021/04/03 04:41:18;;;;;;;12.57;3.07;;;;;;;;;;5050675;28;20394;-50
2021/04/03 04:43:44;;;;;;;6.60;2.80;;;;;;;;;;5050594;28;20405;-50
2021/04/03 04:46:10;;;;;;;16.83;3.40;;;;;;;;;;5050446;28;20409;-50
2021/04/03 04:48:36;;;;;;;9.50;3.27;;;;;;;;;;5053865;28;20414;-50
2021/04/03 04:51:02;;;;;;;8.47;2.90;;;;;;;;;;5054510;28;20462;-50
2021/04/03 04:53:28;;;;;;;14.13;3.30;;;;;;;;;;5054493;28;20539;-50
2021/04/03 04:55:53;;;;;;;17.80;3.87;;;;;;;;;;5054529;28;20638;-50
2021/04/03 04:58:19;;;;;;;13.83;4.37;;;;;;;;;;5054268;28;20421;-51
2021/04/03 05:00:45;;;;;;;15.03;3.50;;;;;;;;;;5055148;28;20520;-52
2021/04/03 05:03:11;;;;;;;8.80;3.03;;;;;;;;;;5054313;28;20434;-52
2021/04/03 05:05:37;;;;;;;15.23;3.70;;;;;;;;;;5054255;28;20413;-50
2021/04/03 05:08:03;;;;;;;13.93;3.27;;;;;;;;;;5054087;28;20505;-50
2021/04/03 05:10:29;;;;;;;16.23;3.80;;;;;;;;;;5054236;28;20495;-50
2021/04/03 05:12:59;;;;;;;13.07;4.30;;;;;;;;;;5054176;28;20272;-50
2021/04/03 05:15:25;;;;;;;15.43;4.20;;;;;;;;;;5054112;28;20401;-52
2021/04/03 05:17:51;;;;;;;13.60;3.77;;;;;;;;;;5053999;28;20168;-52
2021/04/03 05:20:17;;;;;;;16.97;4.30;;;;;;;;;;5053977;28;20504;-53
2021/04/03 05:22:43;;;;;;;9.30;3.53;;;;;;;;;;5053848;28;20423;-50
2021/04/03 05:25:09;;;;;;;15.67;5.00;;;;;;;;;;5054066;28;20795;-50
2021/04/03 05:27:35;;;;;;;16.95;4.55;;;;;;;;;;5053734;28;20401;-51
2021/04/03 05:30:01;;;;;;;9.87;4.30;;;;;;;;;;5053824;28;20614;-53
2021/04/03 05:32:27;;;;;;;15.87;4.10;;;;;;;;;;5054663;28;20568;-53
2021/04/03 05:34:53;;;;;;;12.20;3.13;;;;;;;;;;5053742;28;20405;-51
2021/04/03 05:37:19;;;;;;;17.90;4.27;;;;;;;;;;5053490;28;20440;-54
2021/04/03 05:39:45;;;;;;;18.08;4.38;;;;;;;;;;5053687;28;20903;-52
2021/04/03 05:42:14;;;;;;;10.95;3.55;;;;;;;;;;5053573;28;20196;-52
2021/04/03 05:44:40;;;;;;;17.15;3.65;;;;;;;;;;5053636;28;20167;-51
2021/04/03 05:47:08;;;;;;;15.82;4.28;;;;;;;;;;5053511;28;20215;-50
2021/04/03 05:49:34;;;;;;;12.15;3.53;;;;;;;;;;5053319;28;20168;-51
2021/04/03 05:52:00;;;;;;;16.35;4.82;;;;;;;;;;5053433;28;20676;-51
2021/04/03 05:54:26;;;;;;;19.23;4.55;;;;;;;;;;5052457;28;20548;-50
2021/04/03 05:56:54;;;;;;;10.20;4.20;;;;;;;;;;5053488;28;20169;-50
2021/04/03 05:59:20;;;;;;;14.30;3.45;;;;;;;;;;5052075;28;20390;-55
2021/04/03 06:01:46;;;;;;;11.27;3.53;;;;;;;;;;5073270;28;20190;-50
2021/04/03 06:04:12;;;;;;;15.93;4.17;;;;;;;;;;5073533;28;20494;-50
2021/04/03 06:06:39;;;;;;;12.63;3.67;;;;;;;;;;5073565;28;20409;-50
2021/04/03 06:09:05;;;;;;;10.98;3.50;;;;;;;;;;5073159;28;20811;-50
2021/04/03 06:11:42;;;;;;;10.48;3.55;;;;;;;;;;5072044;28;20199;-50
2021/04/03 06:14:08;;;;;;;13.68;3.83;;;;;;;;;;5073243;28;20183;-54
2021/04/03 06:16:39;;;;;;;10.83;3.23;;;;;;;;;;5073134;28;20211;-53
2021/04/03 06:19:11;;;;;;;13.80;4.38;;;;;;;;;;5072783;28;20478;-52
2021/04/03 06:21:38;;;;;;;17.67;4.07;;;;;;;;;;5073049;28;20288;-51
2021/04/03 06:24:04;;;;;;;19.98;4.55;;;;;;;;;;5072777;28;20180;-50
2021/04/03 06:26:31;;;;;;;11.77;5.18;;;;;;;;;;5072946;28;20194;-50
2021/04/03 06:29:17;;;;;;;16.77;3.78;;;;;;;;;;5072531;28;20182;-53
2021/04/03 06:31:50;;;;;;;19.30;4.60;;;;;;;;;;5056579;28;20271;-53
2021/04/03 06:34:24;;;;;;;16.10;3.67;;;;;;;;;;5052778;28;20257;-50
2021/04/03 06:36:50;;;;;;;17.98;4.60;;;;;;;;;;5052701;28;20162;-50
2021/04/03 06:39:16;;;;;;;20.17;3.90;;;;;;;;;;5052427;28;20163;-50
2021/04/03 06:41:42;;;;;;;17.07;3.97;;;;;;;;;;5052380;28;20457;-51
2021/04/03 06:44:11;;;;;;;19.37;3.83;;;;;;;;;;5052655;28;20419;-50
2021/04/03 06:46:38;;;;;;;15.63;4.72;;;;;;;;;;5052400;28;20492;-50
2021/04/03 06:49:05;;;;;;;19.77;4.60;;;;;;;;;;5051051;28;20179;-50
2021/04/03 06:51:32;;;;;;;23.63;4.75;;;;;;;;;;5052099;28;20670;-53
2021/04/03 06:53:59;;;;;;;10.95;4.05;;;;;;;;;;5052325;28;20216;-50
2021/04/03 06:56:26;;;;;;;15.23;4.82;;;;;;;;;;5052182;28;20300;-50
2021/04/03 06:58:58;;;;;;;16.52;4.55;;;;;;;;;;5052007;28;20178;-51
2021/04/03 07:01:25;;;;;;;11.02;4.50;;;;;;;;;;5070378;28;20237;-51
2021/04/03 07:03:53;;;;;;;16.60;4.18;;;;;;;;;;5072208;28;20183;-51
2021/04/03 07:06:22;;;;;;;16.60;4.87;;;;;;;;;;5072458;28;20175;-51
2021/04/03 07:08:49;;;;;;;11.73;4.47;;;;;;;;;;5071599;28;20483;-50
2021/04/03 07:11:15;;;;;;;21.80;4.00;;;;;;;;;;5070886;28;20459;-51
2021/04/03 07:13:42;;;;;;;19.20;4.63;;;;;;;;;;5071957;28;20501;-53
2021/04/03 07:16:08;;;;;;;14.00;3.87;;;;;;;;;;5070946;28;20477;-53
2021/04/03 07:18:34;;;;;;;14.17;4.43;;;;;;;;;;5071118;28;20398;-52
2021/04/03 07:21:01;;;;;;;18.87;4.80;;;;;;;;;;5071090;28;20403;-52
2021/04/03 07:23:27;;;;;;;31.77;5.97;;;;;;;;;;5071033;28;20466;-50
2021/04/03 07:25:53;;;;;;;14.70;4.07;;;;;;;;;;5071052;28;20812;-50
2021/04/03 07:28:22;;;;;;;14.60;4.80;;;;;;;;;;5070783;28;20878;-50
2021/04/03 07:30:48;;;;;;;16.43;4.37;;;;;;;;;;5060366;28;20885;-54
2021/04/03 07:33:19;;;;;;;18.80;4.77;;;;;;;;;;5051020;28;20422;-51
2021/04/03 07:35:55;;;;;;;23.80;4.10;;;;;;;;;;5050895;28;20411;-51
2021/04/03 07:38:23;;;;;;;17.97;4.70;;;;;;;;;;5050685;28;20400;-50
2021/04/03 07:40:50;;;;;;;8.83;4.17;;;;;;;;;;5050849;28;20404;-51
2021/04/03 07:43:36;;;;;;;10.00;3.53;;;;;;;;;;5050871;28;20451;-53
2021/04/03 07:46:10;;;;;;;20.30;5.03;;;;;;;;;;5050713;28;20417;-53
2021/04/03 07:48:39;;;;;;;20.47;4.40;;;;;;;;;;5050597;28;20467;-50
2021/04/03 07:51:05;;;;;;;11.33;4.67;;;;;;;;;;5050565;28;20454;-53
2021/04/03 07:53:35;;;;;;;21.00;4.63;;;;;;;;;;5057989;28;20439;-51
2021/04/03 07:56:03;;;;;;;29.80;4.83;;;;;;;;;;5073073;28;20404;-53
2021/04/03 07:58:30;;;;;;;19.27;4.87;;;;;;;;;;5073840;28;20495;-52
2021/04/03 08:00:57;;;;;;;11.00;4.13;;;;;;;;;;5066286;28;20434;-52
2021/04/03 08:03:23;;;;;;;12.33;4.17;;;;;;;;;;5053497;28;20457;-52
2021/04/03 08:05:50;;;;;;;18.80;4.73;;;;;;;;;;5053506;28;20911;-52
2021/04/03 08:08:19;;;;;;;15.03;4.83;;;;;;;;;;5053105;28;20410;-53
2021/04/03 08:10:46;;;;;;;12.23;5.33;;;;;;;;;;5053051;28;20408;-52
2021/04/03 08:13:12;;;;;;;23.57;5.00;;;;;;;;;;5052885;28;20417;-53
2021/04/03 08:15:42;;;;;;;22.20;4.57;;;;;;;;;;5053390;28;20439;-53
2021/04/03 08:18:09;;;;;;;17.80;5.50;;;;;;;;;;5053011;28;20412;-53
2021/04/03 08:20:35;;;;;;;22.33;4.83;;;;;;;;;;5053531;28;20425;-53
2021/04/03 08:23:07;;;;;;;19.73;4.80;;;;;;;;;;5052653;28;20428;-53
2021/04/03 08:25:34;;;;;;;17.73;4.77;;;;;;;;;;5052731;28;20412;-52
2021/04/03 08:28:17;;;;;;;16.83;4.70;;;;;;;;;;5053981;28;20477;-53
2021/04/03 08:30:43;;;;;;;17.00;4.80;;;;;;;;;;5054208;28;20475;-53
2021/04/03 08:33:11;;;;;;;13.50;4.87;;;;;;;;;;5052803;28;20859;-53
2021/04/03 08:35:38;;;;;;;15.33;4.47;;;;;;;;;;5051937;28;20397;-53
2021/04/03 08:38:07;;;;;;;13.53;4.67;;;;;;;;;;5052111;28;20736;-52
2021/04/03 08:40:34;;;;;;;24.33;4.50;;;;;;;;;;5051776;28;20940;-53
2021/04/03 08:43:00;;;;;;;11.47;4.60;;;;;;;;;;5051797;28;20428;-52
2021/04/03 08:45:26;;;;;;;18.00;5.00;;;;;;;;;;5053571;28;20401;-52
2021/04/03 08:47:51;;;;;;;13.00;4.93;;;;;;;;;;5051805;28;20398;-53
2021/04/03 08:50:18;;;;;;;13.07;5.30;;;;;;;;;;5052078;28;20755;-53
2021/04/03 08:52:44;;;;;;;16.53;4.80;;;;;;;;;;5051738;28;20461;-53
2021/04/03 08:55:10;;;;;;;17.03;5.70;;;;;;;;;;5052131;28;20405;-53
2021/04/03 08:57:37;;;;;;;20.57;5.63;;;;;;;;;;5054353;28;20428;-53
2021/04/03 09:00:04;;;;;;;20.53;5.70;;;;;;;;;;5058223;28;20436;-53
2021/04/03 09:02:31;;;;;;;18.67;5.53;;;;;;;;;;5075309;28;20434;-53
2021/04/03 09:08:00;;;;;;;14.67;4.27;;;;;;;;;;4989556;28;20558;-52
2021/04/03 09:10:26;;;;;;;8.23;4.40;;;;;;;;;;4991965;28;20474;-52
2021/04/03 09:12:53;;;;;;;12.83;3.90;;;;;;;;;;4997302;28;20498;-51
2021/04/03 09:15:29;;;;;;;14.43;4.13;;;;;;;;;;4993173;28;20423;-52
2021/04/03 09:17:57;;;;;;;11.47;6.47;;;;;;;;;;5010619;28;20453;-52
2021/04/03 09:22:53;;;;;;;14.03;4.20;;;;;;;;;;5047428;28;20935;-61
2021/04/03 09:25:23;;;;;;;15.77;5.43;;;;;;;;;;5050050;28;20818;-60
2021/04/03 09:27:59;;;;;;;10.77;5.53;;;;;;;;;;5049994;28;20396;-60
2021/04/03 09:30:38;;;;;;;20.13;4.60;;;;;;;;;;5050045;28;20386;-58
2021/04/03 09:33:14;;;;;;;10.33;4.70;;;;;;;;;;5049941;28;20391;-58
2021/04/03 09:35:41;;;;;;;14.80;5.10;;;;;;;;;;5052968;28;20393;-58
2021/04/03 09:38:07;;;;;;;13.73;4.83;;;;;;;;;;5053718;28;20397;-60
2021/04/03 09:40:44;;;;;;;10.70;4.27;;;;;;;;;;5053651;28;20608;-62
2021/04/03 09:43:13;;;;;;;12.23;6.43;;;;;;;;;;5053715;28;20371;-59
2021/04/03 09:45:39;;;;;;;9.77;4.80;;;;;;;;;;5053270;28;20372;-59
2021/04/03 09:48:08;;;;;;;11.10;4.40;;;;;;;;;;5053284;28;20875;-60
2021/04/03 09:50:34;;;;;;;15.10;5.97;;;;;;;;;;5053458;28;20392;-61
2021/04/03 09:53:09;;;;;;;12.63;4.97;;;;;;;;;;5053461;28;20419;-61
2021/04/03 09:55:36;;;;;;;17.23;6.00;;;;;;;;;;5053257;28;20478;-63
2021/04/03 09:58:02;;;;;;;16.27;5.00;;;;;;;;;;5053242;28;20491;-62
2021/04/03 10:00:28;;;;;;;17.03;5.33;;;;;;;;;;5053389;28;20483;-58
2021/04/03 10:02:54;;;;;;;9.90;5.13;;;;;;;;;;5053425;28;21088;-58
2021/04/03 10:05:20;;;;;;;13.40;6.77;;;;;;;;;;5053149;28;20402;-58
2021/04/03 10:07:46;;;;;;;23.27;6.27;;;;;;;;;;5053340;28;20404;-58
2021/04/03 10:10:12;;;;;;;16.00;6.07;;;;;;;;;;5053068;28;20404;-58
2021/04/03 10:12:38;;;;;;;15.10;5.03;;;;;;;;;;5053063;28;20447;-60
2021/04/03 10:15:04;;;;;;;19.80;6.40;;;;;;;;;;5052763;28;20436;-58
2021/04/03 10:17:30;;;;;;;16.43;5.60;;;;;;;;;;5053101;28;20543;-60
2021/04/03 10:19:56;;;;;;;12.90;5.10;;;;;;;;;;5052967;28;20490;-60
2021/04/03 10:22:22;;;;;;;17.97;6.67;;;;;;;;;;5052884;28;20927;-58
2021/04/03 10:24:48;;;;;;;14.97;5.33;;;;;;;;;;5052861;28;20547;-58
2021/04/03 10:27:14;;;;;;;18.20;5.70;;;;;;;;;;5052642;28;20405;-61
2021/04/03 10:29:40;;;;;;;18.37;5.43;;;;;;;;;;5052919;28;20401;-58
2021/04/03 10:32:06;;;;;;;20.47;5.10;;;;;;;;;;5052653;28;20463;-60
2021/04/03 10:34:32;;;;;;;11.90;5.40;;;;;;;;;;5052827;28;20397;-58
2021/04/03 10:36:58;;;;;;;13.67;5.33;;;;;;;;;;5052582;28;20907;-58
2021/04/03 10:39:24;;;;;;;18.97;7.50;;;;;;;;;;5053224;28;20368;-58
2021/04/03 10:41:50;;;;;;;10.60;5.90;;;;;;;;;;5052743;28;20468;-59
2021/04/03 10:44:16;;;;;;;15.17;7.30;;;;;;;;;;5051902;28;20435;-59
2021/04/03 10:46:42;;;;;;;16.47;7.10;;;;;;;;;;5052200;28;20380;-61
2021/04/03 10:49:08;;;;;;;12.10;5.80;;;;;;;;;;5052714;28;20380;-62
2021/04/03 10:51:34;;;;;;;6.83;5.17;;;;;;;;;;5052279;28;20519;-61
2021/04/03 10:54:00;;;;;;;9.00;5.30;;;;;;;;;;5052367;28;20401;-62
2021/04/03 10:56:26;;;;;;;21.13;6.00;;;;;;;;;;5051735;28;20541;-61
2021/04/03 10:58:53;;;;;;;12.37;4.80;;;;;;;;;;5052292;28;20384;-61
2021/04/03 11:01:19;;;;;;;9.37;4.90;;;;;;;;;;5052084;28;20432;-58
2021/04/03 11:03:44;;;;;;;12.03;5.70;;;;;;;;;;5052049;28;20433;-60
2021/04/03 11:06:10;;;;;;;17.03;5.10;;;;;;;;;;5051823;28;20416;-59
2021/04/03 11:08:36;;;;;;;9.00;4.30;;;;;;;;;;5051894;28;20397;-59
2021/04/03 11:11:02;;;;;;;9.73;5.97;;;;;;;;;;5051709;28;20449;-62
2021/04/03 11:13:28;;;;;;;17.27;5.13;;;;;;;;;;5051831;28;20405;-59
2021/04/03 11:15:54;;;;;;;14.07;4.50;;;;;;;;;;5051581;28;20389;-60
2021/04/03 11:18:20;;;;;;;11.10;5.30;;;;;;;;;;5051690;28;20429;-59
2021/04/03 11:20:46;;;;;;;10.53;5.03;;;;;;;;;;5051596;28;20974;-60
2021/04/03 11:23:12;;;;;;;10.30;5.43;;;;;;;;;;5051647;28;20540;-61
2021/04/03 11:25:38;;;;;;;12.13;5.50;;;;;;;;;;5051413;28;21058;-58
2021/04/03 11:28:05;;;;;;;13.47;5.20;;;;;;;;;;5050059;28;20444;-60
2021/04/03 11:30:31;;;;;;;10.10;4.93;;;;;;;;;;5051143;28;20421;-59
2021/04/03 11:32:57;;;;;;;8.87;4.83;;;;;;;;;;5053077;28;20780;-60
2021/04/03 11:35:24;;;;;;;13.73;4.80;;;;;;;;;;5043010;28;20406;-60
2021/04/03 11:37:50;;;;;;;6.73;4.73;;;;;;;;;;5040663;28;20448;-60
2021/04/03 11:40:17;;;;;;;14.97;5.90;;;;;;;;;;5047352;28;20414;-60
2021/04/03 11:42:45;;;;;;;8.33;4.50;;;;;;;;;;5050040;28;20416;-60
2021/04/03 11:45:11;;;;;;;7.20;4.60;;;;;;;;;;5042085;28;20377;-60
2021/04/03 11:47:38;;;;;;;8.83;5.00;;;;;;;;;;5044212;28;20425;-58
2021/04/03 11:50:05;;;;;;;11.50;5.53;;;;;;;;;;5050804;28;20496;-58
2021/04/03 11:52:32;;;;;;;11.50;5.70;;;;;;;;;;5045962;28;20454;-59
2021/04/03 11:54:59;;;;;;;14.57;5.70;;;;;;;;;;5045293;28;20912;-59
2021/04/03 11:57:25;;;;;;;17.67;5.30;;;;;;;;;;5046783;28;20432;-59
2021/04/03 11:59:51;;;;;;;10.60;4.97;;;;;;;;;;5049071;28;20421;-59
2021/04/03 12:02:17;;;;;;;15.83;5.03;;;;;;;;;;5049690;28;20433;-59
2021/04/03 12:04:43;;;;;;;11.97;5.70;;;;;;;;;;5049951;28;20409;-60
2021/04/03 12:07:09;;;;;;;11.70;5.10;;;;;;;;;;5050397;28;20635;-60
2021/04/03 12:09:35;;;;;;;15.77;5.27;;;;;;;;;;5032157;28;20409;-58
2021/04/03 12:12:01;;;;;;;10.97;5.10;;;;;;;;;;5050062;28;20456;-59
2021/04/03 12:14:27;;;;;;;11.63;5.60;;;;;;;;;;5049313;28;20409;-60
2021/04/03 12:16:53;;;;;;;11.10;4.47;;;;;;;;;;5033462;28;20414;-58
2021/04/03 12:19:19;;;;;;;8.97;4.90;;;;;;;;;;5033823;28;20409;-58
2021/04/03 12:21:45;;;;;;;9.30;4.57;;;;;;;;;;5050820;28;20929;-59
2021/04/03 12:24:11;;;;;;;7.50;4.20;;;;;;;;;;5033444;28;20818;-59
2021/04/03 12:26:37;;;;;;;9.70;4.33;;;;;;;;;;5051144;28;20740;-58
2021/04/03 12:29:03;;;;;;;10.03;3.93;;;;;;;;;;5051148;28;20409;-59
2021/04/03 12:31:29;;;;;;;9.50;4.27;;;;;;;;;;5032838;28;20444;-59
2021/04/03 12:33:55;;;;;;;8.20;4.00;;;;;;;;;;5051479;28;20939;-58
2021/04/03 12:39:38;;;;;;;10.23;5.50;;;;;;;;;;5033014;28;20413;-61
2021/04/03 12:42:04;;;;;;;11.97;4.63;;;;;;;;;;5050432;28;20421;-59
2021/04/03 12:44:30;;;;;;;11.20;4.60;;;;;;;;;;5050505;28;20393;-58
2021/04/03 12:46:56;;;;;;;10.00;3.97;;;;;;;;;;5050069;28;20448;-59
2021/04/03 12:49:22;;;;;;;12.00;5.03;;;;;;;;;;5050467;28;20382;-59
2021/04/03 12:51:48;;;;;;;7.07;3.83;;;;;;;;;;5050183;28;20556;-60
2021/04/03 12:54:14;;;;;;;5.70;4.00;;;;;;;;;;5050404;28;20380;-61
2021/04/03 12:56:40;;;;;;;7.00;3.57;;;;;;;;;;5050057;28;20380;-61
2021/04/03 12:59:06;;;;;;;8.70;4.40;;;;;;;;;;5050355;28;20375;-59
2021/04/03 13:01:32;;;;;;;17.23;3.70;;;;;;;;;;5050161;28;20403;-59
2021/04/03 13:03:58;;;;;;;8.27;3.60;;;;;;;;;;5050525;28;20402;-59
2021/04/03 13:06:24;;;;;;;10.67;4.00;;;;;;;;;;5049808;28;20398;-59
2021/04/03 13:08:50;;;;;;;8.50;3.33;;;;;;;;;;5052223;28;20465;-60
2021/04/03 13:11:16;;;;;;;12.17;3.63;;;;;;;;;;5053825;28;20488;-60
2021/04/03 13:13:42;;;;;;;4.83;3.67;;;;;;;;;;5054153;28;20865;-58
2021/04/03 13:16:08;;;;;;;9.07;3.53;;;;;;;;;;5053912;28;20404;-59
2021/04/03 13:18:33;;;;;;;11.87;3.87;;;;;;;;;;5054117;28;20408;-59
2021/04/03 13:20:59;;;;;;;10.00;3.93;;;;;;;;;;5053725;28;20444;-58
2021/04/03 13:23:26;;;;;;;10.97;4.50;;;;;;;;;;5053906;28;20380;-58
2021/04/03 13:25:52;;;;;;;7.00;4.23;;;;;;;;;;5053769;28;20401;-58
2021/04/03 13:28:18;;;;;;;6.97;4.30;;;;;;;;;;5053872;28;20891;-58
2021/04/03 13:30:44;;;;;;;8.77;4.40;;;;;;;;;;5053651;28;20421;-59
2021/04/03 13:33:09;;;;;;;12.27;4.13;;;;;;;;;;5053724;28;20431;-58
2021/04/03 13:35:35;;;;;;;7.60;3.90;;;;;;;;;;5053521;28;20402;-59
2021/04/03 13:38:01;;;;;;;5.13;4.07;;;;;;;;;;5053771;28;20433;-59
2021/04/03 13:40:27;;;;;;;9.87;4.07;;;;;;;;;;5054233;28;20441;-59
2021/04/03 13:42:53;;;;;;;11.20;4.80;;;;;;;;;;5054798;28;20813;-61
2021/04/03 13:45:19;;;;;;;5.97;3.30;;;;;;;;;;5053422;28;20405;-61
2021/04/03 13:47:45;;;;;;;5.10;3.00;;;;;;;;;;5053582;28;20372;-61
2021/04/03 13:50:11;;;;;;;7.40;4.00;;;;;;;;;;5053428;28;20510;-61
2021/04/03 13:52:37;;;;;;;7.87;3.73;;;;;;;;;;5053228;28;20421;-61
2021/04/03 13:55:04;;;;;;;8.53;3.90;;;;;;;;;;5053216;28;20830;-61
2021/04/03 13:57:31;;;;;;;7.07;4.03;;;;;;;;;;5053325;28;20405;-62
2021/04/03 13:59:57;;;;;;;4.90;3.70;;;;;;;;;;5053710;28;20401;-62
2021/04/03 14:02:23;;;;;;;7.70;4.43;;;;;;;;;;5053292;28;20429;-62
2021/04/03 14:04:49;;;;;;;11.57;4.90;;;;;;;;;;5053252;28;20500;-62
2021/04/03 14:07:15;;;;;;;9.60;4.20;;;;;;;;;;5052977;28;20402;-62
2021/04/03 14:09:41;;;;;;;5.60;3.23;;;;;;;;;;5053099;28;20506;-62
2021/04/03 14:12:08;;;;;;;6.57;3.43;;;;;;;;;;5053039;28;20473;-62
2021/04/03 14:14:34;;;;;;;8.40;3.77;;;;;;;;;;5053245;28;20410;-61
2021/04/03 14:17:00;;;;;;;5.80;3.13;;;;;;;;;;5053121;28;20405;-60
2021/04/03 14:19:26;;;;;;;4.97;3.20;;;;;;;;;;5052651;28;20418;-61
2021/04/03 14:21:52;;;;;;;10.10;4.17;;;;;;;;;;5052783;28;20706;-62
2021/04/03 14:24:18;;;;;;;8.57;3.20;;;;;;;;;;5052929;28;20410;-62
2021/04/03 14:26:44;;;;;;;6.37;3.90;;;;;;;;;;5052565;28;20391;-62
2021/04/03 14:29:10;;;;;;;11.40;4.00;;;;;;;;;;5052738;28;20444;-62
2021/04/03 14:31:40;;;;;;;8.40;3.80;;;;;;;;;;5052679;28;20509;-62
2021/04/03 14:34:06;;;;;;;10.93;4.07;;;;;;;;;;5052927;28;20380;-61
2021/04/03 14:36:32;;;;;;;7.00;3.83;;;;;;;;;;5052545;28;20408;-61
2021/04/03 14:38:58;;;;;;;9.77;4.47;;;;;;;;;;5052623;28;20371;-61
2021/04/03 14:41:24;;;;;;;14.93;6.20;;;;;;;;;;5052345;28;20402;-62